Time;durP1;ratioP1;P1;durP2;ratioP2;P2;SDS_P1;SDS_P2;PMS_P1;PMS_P2;Temp;Humidity;BMP_temperature;BMP_pressure;BME280_temperature;BME280_humidity;BME280_pressure;Samples;Min_cycle;Max_cycle;Signal;HPM_P1;HPM_P2
2024/03/17 00:01:32;;;;;;;4.00;1.60;;;;;;;;;;5071076;28;20050;-61
2024/03/17 00:03:58;;;;;;;2.80;1.23;;;;;;;;;;5071092;28;20036;-59
2024/03/17 00:06:23;;;;;;;3.88;1.58;;;;;;;;;;5071360;28;20024;-60
2024/03/17 00:08:50;;;;;;;2.88;1.50;;;;;;;;;;5071070;28;20131;-59
2024/03/17 00:11:15;;;;;;;1.90;0.98;;;;;;;;;;5071157;28;20036;-60
2024/03/17 00:13:41;;;;;;;2.67;1.38;;;;;;;;;;5071312;28;20037;-52
2024/03/17 00:16:07;;;;;;;3.25;1.30;;;;;;;;;;5071176;28;20024;-52
2024/03/17 00:18:32;;;;;;;2.88;1.20;;;;;;;;;;5070886;28;20127;-51
2024/03/17 00:20:58;;;;;;;2.50;1.15;;;;;;;;;;5071312;28;20460;-52
2024/03/17 00:23:24;;;;;;;2.65;1.23;;;;;;;;;;5070949;28;20090;-54
2024/03/17 00:25:50;;;;;;;3.28;1.17;;;;;;;;;;5070823;28;20041;-52
2024/03/17 00:28:16;;;;;;;3.97;1.40;;;;;;;;;;5070582;28;20476;-54
2024/03/17 00:30:41;;;;;;;2.58;1.00;;;;;;;;;;5071219;28;20090;-50
2024/03/17 00:33:07;;;;;;;3.13;1.40;;;;;;;;;;5070404;28;20044;-53
2024/03/17 00:35:33;;;;;;;2.58;1.30;;;;;;;;;;5070895;28;20036;-53
2024/03/17 00:37:58;;;;;;;2.80;1.20;;;;;;;;;;5068989;28;20032;-52
2024/03/17 00:40:23;;;;;;;2.20;1.08;;;;;;;;;;5070564;28;20416;-53
2024/03/17 00:42:49;;;;;;;2.47;1.27;;;;;;;;;;5070608;28;20068;-53
2024/03/17 00:45:14;;;;;;;2.65;1.02;;;;;;;;;;5070632;28;20029;-51
2024/03/17 00:47:40;;;;;;;3.58;1.50;;;;;;;;;;5070703;28;20044;-53
2024/03/17 00:50:11;;;;;;;2.90;1.10;;;;;;;;;;5070365;28;20044;-53
2024/03/17 00:52:36;;;;;;;3.97;1.10;;;;;;;;;;5070736;28;20040;-54
2024/03/17 00:55:02;;;;;;;2.45;1.00;;;;;;;;;;5070629;28;20116;-53
2024/03/17 00:57:27;;;;;;;1.90;1.05;;;;;;;;;;5069948;28;20040;-55
2024/03/17 00:59:53;;;;;;;2.67;1.00;;;;;;;;;;5070512;28;20032;-52
2024/03/17 01:02:18;;;;;;;2.97;1.00;;;;;;;;;;5070143;28;20043;-49
2024/03/17 01:04:44;;;;;;;2.75;1.23;;;;;;;;;;5069628;28;20040;-55
2024/03/17 01:07:10;;;;;;;2.45;1.10;;;;;;;;;;5069581;28;20393;-51
2024/03/17 01:09:36;;;;;;;2.25;1.00;;;;;;;;;;5069794;28;20043;-54
2024/03/17 01:12:02;;;;;;;2.72;1.00;;;;;;;;;;5070300;28;20399;-55
2024/03/17 01:14:28;;;;;;;4.15;1.30;;;;;;;;;;5064898;28;20080;-53
2024/03/17 01:16:53;;;;;;;3.00;1.00;;;;;;;;;;5070564;28;20051;-53
2024/03/17 01:19:19;;;;;;;2.10;0.90;;;;;;;;;;5070078;28;20041;-51
2024/03/17 01:21:44;;;;;;;1.55;0.90;;;;;;;;;;5068528;28;20032;-51
2024/03/17 01:24:09;;;;;;;2.55;0.80;;;;;;;;;;5069962;28;20048;-49
2024/03/17 01:26:35;;;;;;;2.78;1.00;;;;;;;;;;5070324;28;20033;-54
2024/03/17 01:29:01;;;;;;;2.53;1.00;;;;;;;;;;5067703;28;20036;-53
2024/03/17 01:31:27;;;;;;;2.42;1.00;;;;;;;;;;5069296;28;20044;-53
2024/03/17 01:33:52;;;;;;;1.95;0.90;;;;;;;;;;5070175;28;20554;-50
2024/03/17 01:36:17;;;;;;;2.05;0.88;;;;;;;;;;5069700;28;20031;-51
2024/03/17 01:38:43;;;;;;;1.50;0.80;;;;;;;;;;5070187;28;20538;-54
2024/03/17 01:41:08;;;;;;;1.35;0.70;;;;;;;;;;5070008;28;20048;-50
2024/03/17 01:43:33;;;;;;;1.83;0.90;;;;;;;;;;5067315;28;20043;-53
2024/03/17 01:45:59;;;;;;;2.95;0.98;;;;;;;;;;5067649;28;20044;-55
2024/03/17 01:48:25;;;;;;;3.65;1.00;;;;;;;;;;5052405;28;20123;-54
2024/03/17 01:50:52;;;;;;;2.10;0.90;;;;;;;;;;5056356;28;20058;-52
2024/03/17 01:53:17;;;;;;;2.05;0.82;;;;;;;;;;5055702;28;20111;-51
2024/03/17 01:55:43;;;;;;;1.60;0.80;;;;;;;;;;5056343;28;20539;-52
2024/03/17 01:58:13;;;;;;;1.75;0.90;;;;;;;;;;5073947;28;20028;-54
2024/03/17 02:00:38;;;;;;;1.63;0.80;;;;;;;;;;5073718;28;20119;-60
2024/03/17 02:03:05;;;;;;;1.10;0.70;;;;;;;;;;5073111;28;20123;-60
2024/03/17 02:05:31;;;;;;;2.20;0.90;;;;;;;;;;5071712;28;20020;-60
2024/03/17 02:07:56;;;;;;;1.48;0.70;;;;;;;;;;5073515;28;20519;-61
2024/03/17 02:10:21;;;;;;;2.28;0.90;;;;;;;;;;5073702;28;20391;-60
2024/03/17 02:12:48;;;;;;;1.35;0.70;;;;;;;;;;5073743;28;20045;-59
2024/03/17 02:15:14;;;;;;;2.20;0.90;;;;;;;;;;5073417;28;20115;-60
2024/03/17 02:17:39;;;;;;;1.58;0.70;;;;;;;;;;5073340;28;20119;-61
2024/03/17 02:20:07;;;;;;;1.75;0.80;;;;;;;;;;5073690;28;20098;-59
2024/03/17 02:22:34;;;;;;;1.20;0.60;;;;;;;;;;5070950;28;20045;-60
2024/03/17 02:25:00;;;;;;;2.25;0.80;;;;;;;;;;5073255;28;20048;-60
2024/03/17 02:27:25;;;;;;;3.00;0.70;;;;;;;;;;5073056;28;20032;-59
2024/03/17 02:29:50;;;;;;;2.08;0.70;;;;;;;;;;5073221;28;20124;-51
2024/03/17 02:32:16;;;;;;;0.88;0.52;;;;;;;;;;5072580;28;20064;-54
2024/03/17 02:34:44;;;;;;;1.65;0.70;;;;;;;;;;5073412;28;20071;-52
2024/03/17 02:37:10;;;;;;;1.17;0.68;;;;;;;;;;5073178;28;20048;-50
2024/03/17 02:39:35;;;;;;;1.88;0.70;;;;;;;;;;5072790;28;20060;-55
2024/03/17 02:42:05;;;;;;;2.03;0.80;;;;;;;;;;5073083;28;20029;-53
2024/03/17 02:44:31;;;;;;;1.13;0.63;;;;;;;;;;5073071;28;20044;-54
2024/03/17 02:47:00;;;;;;;1.48;0.70;;;;;;;;;;5072578;28;20120;-51
2024/03/17 02:49:36;;;;;;;1.10;0.50;;;;;;;;;;5072835;28;20040;-53
2024/03/17 02:52:01;;;;;;;2.10;0.68;;;;;;;;;;5072857;28;20560;-54
2024/03/17 02:54:27;;;;;;;1.48;0.80;;;;;;;;;;5072626;28;20115;-50
2024/03/17 02:56:52;;;;;;;1.65;0.70;;;;;;;;;;5072895;28;20048;-52
2024/03/17 02:59:17;;;;;;;0.90;0.60;;;;;;;;;;5072467;28;20036;-50
2024/03/17 03:01:44;;;;;;;1.40;0.57;;;;;;;;;;5071443;28;20114;-55
2024/03/17 03:04:10;;;;;;;1.23;0.60;;;;;;;;;;5071863;28;20036;-50
2024/03/17 03:06:35;;;;;;;1.27;0.70;;;;;;;;;;5072575;28;20546;-54
2024/03/17 03:09:00;;;;;;;1.15;0.60;;;;;;;;;;5072838;28;20040;-52
2024/03/17 03:11:26;;;;;;;1.13;0.60;;;;;;;;;;5070812;28;20111;-50
2024/03/17 03:13:51;;;;;;;1.38;0.70;;;;;;;;;;5072356;28;20052;-56
2024/03/17 03:16:18;;;;;;;1.48;0.50;;;;;;;;;;5072798;28;20112;-54
2024/03/17 03:18:44;;;;;;;1.15;0.60;;;;;;;;;;5072144;28;20045;-53
2024/03/17 03:21:10;;;;;;;0.40;0.40;;;;;;;;;;5072187;28;20052;-50
2024/03/17 03:23:36;;;;;;;1.02;0.52;;;;;;;;;;5072292;28;20036;-53
2024/03/17 03:26:03;;;;;;;1.20;0.60;;;;;;;;;;5072075;28;20105;-54
2024/03/17 03:28:30;;;;;;;1.60;0.77;;;;;;;;;;5072106;28;20086;-58
2024/03/17 03:30:55;;;;;;;1.38;0.70;;;;;;;;;;5069735;28;20468;-59
2024/03/17 03:33:21;;;;;;;0.90;0.50;;;;;;;;;;5072039;28;20044;-59
2024/03/17 03:35:46;;;;;;;1.40;0.65;;;;;;;;;;5072276;28;20082;-58
2024/03/17 03:38:16;;;;;;;0.90;0.50;;;;;;;;;;5071994;28;20059;-59
2024/03/17 03:40:44;;;;;;;0.82;0.52;;;;;;;;;;5072203;28;20036;-59
2024/03/17 03:43:10;;;;;;;0.88;0.50;;;;;;;;;;5071573;28;20024;-58
2024/03/17 03:45:36;;;;;;;0.93;0.60;;;;;;;;;;5071934;28;20499;-60
2024/03/17 03:48:02;;;;;;;0.88;0.45;;;;;;;;;;5071682;28;20043;-59
2024/03/17 03:50:28;;;;;;;0.43;0.43;;;;;;;;;;5071350;28;20124;-59
2024/03/17 03:52:53;;;;;;;1.20;0.50;;;;;;;;;;5072054;28;20733;-57
2024/03/17 03:55:19;;;;;;;0.68;0.50;;;;;;;;;;5071696;28;20048;-57
2024/03/17 03:57:50;;;;;;;0.90;0.47;;;;;;;;;;5071575;28;20060;-57
2024/03/17 04:00:15;;;;;;;1.63;0.60;;;;;;;;;;5070930;28;20040;-59
2024/03/17 04:02:42;;;;;;;0.68;0.40;;;;;;;;;;5071211;28;20052;-59
2024/03/17 04:05:08;;;;;;;0.98;0.60;;;;;;;;;;5053578;28;20040;-58
2024/03/17 04:07:34;;;;;;;1.02;0.50;;;;;;;;;;5071129;28;20119;-58
2024/03/17 04:10:00;;;;;;;0.98;0.50;;;;;;;;;;5071526;28;20123;-60
2024/03/17 04:12:25;;;;;;;0.57;0.38;;;;;;;;;;5070803;28;20025;-57
2024/03/17 04:14:53;;;;;;;1.17;0.45;;;;;;;;;;5071091;28;20039;-60
2024/03/17 04:17:21;;;;;;;1.42;0.57;;;;;;;;;;5071195;28;20388;-60
2024/03/17 04:19:48;;;;;;;0.95;0.50;;;;;;;;;;5071171;28;20063;-58
2024/03/17 04:22:13;;;;;;;0.88;0.32;;;;;;;;;;5070632;28;20082;-60
2024/03/17 04:24:38;;;;;;;1.23;0.63;;;;;;;;;;5071119;28;20052;-57
2024/03/17 04:27:04;;;;;;;1.38;0.50;;;;;;;;;;5071271;28;20028;-59
2024/03/17 04:29:29;;;;;;;1.23;0.57;;;;;;;;;;5070675;28;20045;-60
2024/03/17 04:31:55;;;;;;;0.63;0.60;;;;;;;;;;5070915;28;20040;-60
2024/03/17 04:34:20;;;;;;;0.90;0.57;;;;;;;;;;5070956;28;20111;-59
2024/03/17 04:36:46;;;;;;;1.02;0.68;;;;;;;;;;5070624;28;20060;-55
2024/03/17 04:39:12;;;;;;;1.60;0.70;;;;;;;;;;5070834;28;20075;-59
2024/03/17 04:41:39;;;;;;;0.45;0.40;;;;;;;;;;5069862;28;20498;-57
2024/03/17 04:44:06;;;;;;;0.70;0.50;;;;;;;;;;5070862;28;20040;-59
2024/03/17 04:46:32;;;;;;;0.57;0.40;;;;;;;;;;5068699;28;20067;-56
2024/03/17 04:48:57;;;;;;;0.47;0.40;;;;;;;;;;5070963;28;20413;-58
2024/03/17 04:51:22;;;;;;;0.50;0.40;;;;;;;;;;5070585;28;20036;-60
2024/03/17 04:53:48;;;;;;;1.02;0.73;;;;;;;;;;5070476;28;20048;-59
2024/03/17 04:56:13;;;;;;;0.65;0.40;;;;;;;;;;5071037;28;20032;-58
2024/03/17 04:58:38;;;;;;;0.90;0.50;;;;;;;;;;5070573;28;20476;-56
2024/03/17 05:01:08;;;;;;;0.75;0.50;;;;;;;;;;5070324;28;20486;-60
2024/03/17 05:03:34;;;;;;;1.17;0.50;;;;;;;;;;5070305;28;20112;-59
2024/03/17 05:06:03;;;;;;;0.93;0.50;;;;;;;;;;5070559;28;20039;-60
2024/03/17 05:08:29;;;;;;;1.65;0.50;;;;;;;;;;5070282;28;20120;-52
2024/03/17 05:11:04;;;;;;;0.47;0.45;;;;;;;;;;5070546;28;20032;-51
2024/03/17 05:13:30;;;;;;;0.80;0.50;;;;;;;;;;5070795;28;20071;-55
2024/03/17 05:15:56;;;;;;;0.55;0.38;;;;;;;;;;5070103;28;20624;-52
2024/03/17 05:18:22;;;;;;;0.68;0.50;;;;;;;;;;5070210;28;20104;-53
2024/03/17 05:20:56;;;;;;;1.08;0.50;;;;;;;;;;5070363;28;20086;-55
2024/03/17 05:23:22;;;;;;;0.82;0.50;;;;;;;;;;5069485;28;20032;-55
2024/03/17 05:25:54;;;;;;;0.93;0.60;;;;;;;;;;5069284;28;20032;-52
2024/03/17 05:28:20;;;;;;;1.00;0.50;;;;;;;;;;5070172;28;20345;-55
2024/03/17 05:30:46;;;;;;;1.65;0.40;;;;;;;;;;5070452;28;20071;-50
2024/03/17 05:33:11;;;;;;;0.52;0.40;;;;;;;;;;5069917;28;20032;-56
2024/03/17 05:35:36;;;;;;;0.88;0.52;;;;;;;;;;5069529;28;20073;-55
2024/03/17 05:38:02;;;;;;;0.60;0.45;;;;;;;;;;5050807;28;20040;-54
2024/03/17 05:40:27;;;;;;;0.63;0.50;;;;;;;;;;5069287;28;20649;-56
2024/03/17 05:42:52;;;;;;;0.70;0.47;;;;;;;;;;5070158;28;20027;-55
2024/03/17 05:45:18;;;;;;;0.70;0.50;;;;;;;;;;5070141;28;20037;-57
2024/03/17 05:47:43;;;;;;;1.20;0.60;;;;;;;;;;5069863;28;20044;-54
2024/03/17 05:50:09;;;;;;;1.00;0.45;;;;;;;;;;5069937;28;20523;-51
2024/03/17 05:52:34;;;;;;;0.80;0.50;;;;;;;;;;5070011;28;20040;-53
2024/03/17 05:55:00;;;;;;;1.08;0.60;;;;;;;;;;5070059;28;20447;-50
2024/03/17 05:57:25;;;;;;;0.90;0.57;;;;;;;;;;5069662;28;20033;-54
2024/03/17 05:59:51;;;;;;;1.65;0.57;;;;;;;;;;5069948;28;20047;-55
2024/03/17 06:02:18;;;;;;;0.63;0.40;;;;;;;;;;5069882;28;20040;-54
2024/03/17 06:04:44;;;;;;;0.70;0.50;;;;;;;;;;5069472;28;20064;-54
2024/03/17 06:07:09;;;;;;;0.80;0.50;;;;;;;;;;5069977;28;20068;-54
2024/03/17 06:09:34;;;;;;;0.75;0.47;;;;;;;;;;5069867;28;20040;-53
2024/03/17 06:12:00;;;;;;;0.50;0.40;;;;;;;;;;5069524;28;20029;-51
2024/03/17 06:14:25;;;;;;;0.77;0.45;;;;;;;;;;5069682;28;20032;-55
2024/03/17 06:16:51;;;;;;;1.38;0.55;;;;;;;;;;5069835;28;20139;-53
2024/03/17 06:19:17;;;;;;;0.60;0.50;;;;;;;;;;5069230;28;20075;-55
2024/03/17 06:21:42;;;;;;;1.30;0.55;;;;;;;;;;5069824;28;20123;-54
2024/03/17 06:24:08;;;;;;;0.57;0.40;;;;;;;;;;5069839;28;20044;-51
2024/03/17 06:26:34;;;;;;;0.88;0.60;;;;;;;;;;5069562;28;20028;-53
2024/03/17 06:29:02;;;;;;;0.70;0.52;;;;;;;;;;5069276;28;20484;-55
2024/03/17 06:31:28;;;;;;;1.35;0.60;;;;;;;;;;5069623;28;20119;-53
2024/03/17 06:33:53;;;;;;;0.70;0.45;;;;;;;;;;5069866;28;20119;-50
2024/03/17 06:36:18;;;;;;;1.00;0.50;;;;;;;;;;5072479;28;20040;-55
2024/03/17 06:38:44;;;;;;;2.08;0.50;;;;;;;;;;5073411;28;20033;-54
2024/03/17 06:41:10;;;;;;;0.80;0.50;;;;;;;;;;5073165;28;20040;-54
2024/03/17 06:43:35;;;;;;;0.65;0.50;;;;;;;;;;5072683;28;20036;-57
2024/03/17 06:46:01;;;;;;;1.73;0.60;;;;;;;;;;5073033;28;20040;-51
2024/03/17 06:48:28;;;;;;;1.85;0.52;;;;;;;;;;5071444;28;20071;-55
2024/03/17 06:50:56;;;;;;;0.60;0.40;;;;;;;;;;5072910;28;20117;-52
2024/03/17 06:53:22;;;;;;;0.40;0.40;;;;;;;;;;5072759;28;20052;-54
2024/03/17 06:55:58;;;;;;;0.70;0.43;;;;;;;;;;5073147;28;20028;-53
2024/03/17 06:58:26;;;;;;;1.40;0.65;;;;;;;;;;5072461;28;20123;-51
2024/03/17 07:01:01;;;;;;;0.82;0.40;;;;;;;;;;5072809;28;20059;-53
2024/03/17 07:03:28;;;;;;;0.77;0.50;;;;;;;;;;5066168;28;20438;-59
2024/03/17 07:05:58;;;;;;;0.63;0.45;;;;;;;;;;5072498;28;20041;-60
2024/03/17 07:08:24;;;;;;;0.93;0.57;;;;;;;;;;5072186;28;20032;-60
2024/03/17 07:11:03;;;;;;;0.40;0.40;;;;;;;;;;5072892;28;20119;-60
2024/03/17 07:13:30;;;;;;;0.68;0.50;;;;;;;;;;5072796;28;20032;-60
2024/03/17 07:15:56;;;;;;;0.98;0.50;;;;;;;;;;5071847;28;20020;-59
2024/03/17 07:18:21;;;;;;;0.55;0.43;;;;;;;;;;5072881;28;20035;-51
2024/03/17 07:20:47;;;;;;;0.57;0.40;;;;;;;;;;5072138;28;20407;-58
2024/03/17 07:23:16;;;;;;;0.70;0.50;;;;;;;;;;5071629;28;20598;-61
2024/03/17 07:25:42;;;;;;;0.47;0.45;;;;;;;;;;5072694;28;20075;-57
2024/03/17 07:28:09;;;;;;;1.17;0.63;;;;;;;;;;5072164;28;20048;-58
2024/03/17 07:30:35;;;;;;;0.50;0.43;;;;;;;;;;5071954;28;20383;-57
2024/03/17 07:33:00;;;;;;;0.63;0.40;;;;;;;;;;5071952;28;20036;-54
2024/03/17 07:35:25;;;;;;;0.60;0.50;;;;;;;;;;5072252;28;20036;-52
2024/03/17 07:37:50;;;;;;;0.30;0.30;;;;;;;;;;5072297;28;20063;-56
2024/03/17 07:40:16;;;;;;;0.40;0.40;;;;;;;;;;5071591;28;20060;-54
2024/03/17 07:42:42;;;;;;;0.40;0.40;;;;;;;;;;5071531;28;20032;-54
2024/03/17 07:45:07;;;;;;;0.70;0.43;;;;;;;;;;5072113;28;20032;-57
2024/03/17 07:47:35;;;;;;;0.43;0.38;;;;;;;;;;5071130;28;20437;-55
2024/03/17 07:50:05;;;;;;;0.70;0.40;;;;;;;;;;5072189;28;20039;-52
2024/03/17 07:52:33;;;;;;;0.65;0.40;;;;;;;;;;5068114;28;20033;-55
2024/03/17 07:54:58;;;;;;;0.85;0.40;;;;;;;;;;5071681;28;20041;-51
2024/03/17 07:57:24;;;;;;;0.30;0.30;;;;;;;;;;5071855;28;20039;-54
2024/03/17 07:59:51;;;;;;;0.80;0.50;;;;;;;;;;5072165;28;20028;-55
2024/03/17 08:02:16;;;;;;;0.40;0.40;;;;;;;;;;5071045;28;20047;-61
2024/03/17 08:04:42;;;;;;;0.57;0.50;;;;;;;;;;5071698;28;20049;-61
2024/03/17 08:07:07;;;;;;;1.08;0.40;;;;;;;;;;5071398;28;20162;-61
2024/03/17 08:09:33;;;;;;;0.82;0.50;;;;;;;;;;5071285;28;20040;-58
2024/03/17 08:11:58;;;;;;;0.30;0.30;;;;;;;;;;5071432;28;20032;-59
2024/03/17 08:14:23;;;;;;;0.40;0.40;;;;;;;;;;5071391;28;20037;-53
2024/03/17 08:16:49;;;;;;;0.73;0.50;;;;;;;;;;5070889;28;20036;-52
2024/03/17 08:19:14;;;;;;;0.65;0.40;;;;;;;;;;5070961;28;20110;-55
2024/03/17 08:21:39;;;;;;;0.22;0.22;;;;;;;;;;5071391;28;20443;-54
2024/03/17 08:24:05;;;;;;;0.98;0.50;;;;;;;;;;5071125;28;20032;-56
2024/03/17 08:26:30;;;;;;;0.28;0.28;;;;;;;;;;5070861;28;20048;-53
2024/03/17 08:28:56;;;;;;;0.40;0.40;;;;;;;;;;5071022;28;20077;-50
2024/03/17 08:31:22;;;;;;;0.28;0.28;;;;;;;;;;5070871;28;20560;-49
2024/03/17 08:33:47;;;;;;;0.30;0.30;;;;;;;;;;5070404;28;20064;-53
2024/03/17 08:36:16;;;;;;;0.52;0.40;;;;;;;;;;5070743;28;20032;-54
2024/03/17 08:38:42;;;;;;;0.35;0.30;;;;;;;;;;5071379;28;20115;-51
2024/03/17 08:41:09;;;;;;;0.88;0.40;;;;;;;;;;5070491;28;20119;-54
2024/03/17 08:43:35;;;;;;;0.57;0.40;;;;;;;;;;5070794;28;20070;-50
2024/03/17 08:46:06;;;;;;;0.30;0.30;;;;;;;;;;5070953;28;20482;-50
2024/03/17 08:48:33;;;;;;;0.43;0.40;;;;;;;;;;5070418;28;20036;-53
2024/03/17 08:50:59;;;;;;;0.45;0.35;;;;;;;;;;5070589;28;20093;-54
2024/03/17 08:53:26;;;;;;;0.60;0.40;;;;;;;;;;5057347;28;20028;-51
2024/03/17 08:55:51;;;;;;;0.40;0.40;;;;;;;;;;5070620;28;20399;-54
2024/03/17 08:58:17;;;;;;;0.38;0.30;;;;;;;;;;5068876;28;20088;-55
2024/03/17 09:00:43;;;;;;;0.38;0.30;;;;;;;;;;5070789;28;20483;-54
2024/03/17 09:03:10;;;;;;;0.30;0.30;;;;;;;;;;5070363;28;20036;-54
2024/03/17 09:05:36;;;;;;;0.47;0.40;;;;;;;;;;5070328;28;20115;-54
2024/03/17 09:08:01;;;;;;;0.77;0.40;;;;;;;;;;5070584;28;20434;-58
2024/03/17 09:10:26;;;;;;;1.40;0.47;;;;;;;;;;5070436;28;20041;-59
2024/03/17 09:12:52;;;;;;;0.63;0.20;;;;;;;;;;5070224;28;20107;-59
2024/03/17 09:15:17;;;;;;;0.60;0.30;;;;;;;;;;5070254;28;20127;-59
2024/03/17 09:17:44;;;;;;;0.30;0.30;;;;;;;;;;5070414;28;20040;-58
2024/03/17 09:20:11;;;;;;;0.30;0.30;;;;;;;;;;5070059;28;20086;-60
2024/03/17 09:22:43;;;;;;;0.20;0.20;;;;;;;;;;5070268;28;20083;-56
2024/03/17 09:25:08;;;;;;;0.20;0.20;;;;;;;;;;5069310;28;20399;-58
2024/03/17 09:27:36;;;;;;;0.30;0.30;;;;;;;;;;5070253;28;20116;-58
2024/03/17 09:30:05;;;;;;;1.02;0.40;;;;;;;;;;5069874;28;20032;-52
2024/03/17 09:32:30;;;;;;;0.52;0.30;;;;;;;;;;5070348;28;20043;-54
2024/03/17 09:34:56;;;;;;;0.28;0.28;;;;;;;;;;5070227;28;20107;-50
2024/03/17 09:37:21;;;;;;;0.43;0.30;;;;;;;;;;5069406;28;20041;-50
2024/03/17 09:39:51;;;;;;;0.20;0.20;;;;;;;;;;5069312;28;20047;-52
2024/03/17 09:42:19;;;;;;;0.65;0.40;;;;;;;;;;5070084;28;20094;-54
2024/03/17 09:44:51;;;;;;;0.55;0.30;;;;;;;;;;5058028;28;20045;-55
2024/03/17 09:47:23;;;;;;;0.22;0.22;;;;;;;;;;5068174;28;20114;-52
2024/03/17 09:49:50;;;;;;;0.45;0.32;;;;;;;;;;5070137;28;20090;-49
2024/03/17 09:52:24;;;;;;;1.00;0.50;;;;;;;;;;5069667;28;20036;-57
2024/03/17 09:54:54;;;;;;;0.40;0.40;;;;;;;;;;5070496;28;20036;-58
2024/03/17 09:57:21;;;;;;;0.60;0.40;;;;;;;;;;5066014;28;20094;-58
2024/03/17 09:59:54;;;;;;;0.30;0.30;;;;;;;;;;5069592;28;20059;-57
2024/03/17 10:02:19;;;;;;;0.40;0.30;;;;;;;;;;5069719;28;20037;-58
2024/03/17 10:04:45;;;;;;;0.30;0.30;;;;;;;;;;5070042;28;20085;-58
2024/03/17 10:07:11;;;;;;;0.47;0.47;;;;;;;;;;5069737;28;20502;-58
2024/03/17 10:09:36;;;;;;;0.30;0.30;;;;;;;;;;5052345;28;20071;-59
2024/03/17 10:12:02;;;;;;;0.73;0.32;;;;;;;;;;5073917;28;20449;-57
2024/03/17 10:14:27;;;;;;;0.20;0.20;;;;;;;;;;5073649;28;20031;-59
2024/03/17 10:16:53;;;;;;;0.35;0.30;;;;;;;;;;5072069;28;20036;-58
2024/03/17 10:19:23;;;;;;;0.40;0.30;;;;;;;;;;5072831;28;20055;-60
2024/03/17 10:21:49;;;;;;;0.50;0.40;;;;;;;;;;5073764;28;20121;-59
2024/03/17 10:24:22;;;;;;;0.25;0.25;;;;;;;;;;5072760;28;20407;-60
2024/03/17 10:26:49;;;;;;;0.50;0.30;;;;;;;;;;5073601;28;20036;-60
2024/03/17 10:29:24;;;;;;;0.30;0.30;;;;;;;;;;5073468;28;20040;-59
2024/03/17 10:31:54;;;;;;;0.65;0.40;;;;;;;;;;5072905;28;20419;-59
2024/03/17 10:34:19;;;;;;;0.30;0.30;;;;;;;;;;5073147;28;20036;-59
2024/03/17 10:36:48;;;;;;;0.60;0.40;;;;;;;;;;5073275;28;20032;-59
2024/03/17 10:39:32;;;;;;;0.20;0.20;;;;;;;;;;5054959;28;20411;-60
2024/03/17 10:42:00;;;;;;;0.20;0.20;;;;;;;;;;5070676;28;20032;-59
2024/03/17 10:44:30;;;;;;;0.30;0.30;;;;;;;;;;5073068;28;20040;-56
2024/03/17 10:46:56;;;;;;;0.35;0.32;;;;;;;;;;5072144;28;20040;-60
2024/03/17 10:49:29;;;;;;;0.30;0.30;;;;;;;;;;5072711;28;20033;-58
2024/03/17 10:51:57;;;;;;;0.35;0.30;;;;;;;;;;5071537;28;20078;-58
2024/03/17 10:54:30;;;;;;;0.30;0.30;;;;;;;;;;5065116;28;20128;-57
2024/03/17 10:56:58;;;;;;;0.30;0.30;;;;;;;;;;5068012;28;20111;-57
2024/03/17 10:59:40;;;;;;;0.50;0.40;;;;;;;;;;5054984;28;20472;-60
2024/03/17 11:02:22;;;;;;;0.15;0.15;;;;;;;;;;5072679;28;20094;-59
2024/03/17 11:04:49;;;;;;;0.35;0.30;;;;;;;;;;5072594;28;20493;-61
2024/03/17 11:07:16;;;;;;;0.35;0.35;;;;;;;;;;5072774;28;20067;-60
2024/03/17 11:09:42;;;;;;;0.30;0.30;;;;;;;;;;5054484;28;20036;-59
2024/03/17 11:12:44;;;;;;;0.30;0.30;;;;;;;;;;5072426;28;20047;-54
2024/03/17 11:15:33;;;;;;;0.52;0.30;;;;;;;;;;5072795;28;20048;-53
2024/03/17 11:18:07;;;;;;;0.38;0.30;;;;;;;;;;5065757;28;20056;-55
2024/03/17 11:20:34;;;;;;;0.32;0.30;;;;;;;;;;5072224;28;20499;-49
2024/03/17 11:23:01;;;;;;;0.35;0.35;;;;;;;;;;5071582;28;20101;-50
2024/03/17 11:25:26;;;;;;;0.52;0.38;;;;;;;;;;5072293;28;20033;-59
2024/03/17 11:27:52;;;;;;;0.30;0.30;;;;;;;;;;5072117;28;20042;-58
2024/03/17 11:30:55;;;;;;;0.30;0.30;;;;;;;;;;5072508;28;20105;-58
2024/03/17 11:33:35;;;;;;;0.32;0.30;;;;;;;;;;5071963;28;20032;-58
2024/03/17 11:36:27;;;;;;;0.30;0.30;;;;;;;;;;5058810;28;20068;-59
2024/03/17 11:38:56;;;;;;;0.30;0.30;;;;;;;;;;5072207;28;20040;-58
2024/03/17 11:41:52;;;;;;;0.30;0.30;;;;;;;;;;5071732;28;20445;-59
2024/03/17 11:44:21;;;;;;;0.20;0.20;;;;;;;;;;5058389;28;20040;-58
2024/03/17 11:47:06;;;;;;;0.30;0.30;;;;;;;;;;5072086;28;20067;-52
2024/03/17 11:49:39;;;;;;;0.45;0.35;;;;;;;;;;5071610;28;20042;-53
2024/03/17 11:52:08;;;;;;;0.25;0.25;;;;;;;;;;5071796;28;20052;-52
2024/03/17 11:54:37;;;;;;;0.40;0.30;;;;;;;;;;5062725;28;20483;-55
2024/03/17 11:57:04;;;;;;;0.28;0.28;;;;;;;;;;5071809;28;20028;-60
2024/03/17 11:59:29;;;;;;;0.28;0.20;;;;;;;;;;5071466;28;20400;-57
2024/03/17 12:01:55;;;;;;;0.35;0.30;;;;;;;;;;5071806;28;20036;-59
2024/03/17 12:04:22;;;;;;;0.40;0.30;;;;;;;;;;5071331;28;20035;-55
2024/03/17 12:06:50;;;;;;;0.43;0.30;;;;;;;;;;5071172;28;20048;-58
2024/03/17 12:09:25;;;;;;;0.52;0.32;;;;;;;;;;5053627;28;20584;-59
2024/03/17 12:11:57;;;;;;;0.43;0.40;;;;;;;;;;5071490;28;20082;-60
2024/03/17 12:14:25;;;;;;;0.30;0.30;;;;;;;;;;5071089;28;20460;-55
2024/03/17 12:16:54;;;;;;;0.20;0.20;;;;;;;;;;5071397;28;20033;-53
2024/03/17 12:19:20;;;;;;;0.30;0.28;;;;;;;;;;5071210;28;20044;-54
2024/03/17 12:21:50;;;;;;;0.40;0.30;;;;;;;;;;5068691;28;20107;-55
2024/03/17 12:24:17;;;;;;;0.45;0.35;;;;;;;;;;5070939;28;20484;-50
2024/03/17 12:26:44;;;;;;;0.30;0.30;;;;;;;;;;5071201;28;20170;-53
2024/03/17 12:29:32;;;;;;;0.68;0.43;;;;;;;;;;5070826;28;20035;-50
2024/03/17 12:32:02;;;;;;;0.47;0.30;;;;;;;;;;5071189;28;20037;-51
2024/03/17 12:34:30;;;;;;;0.47;0.28;;;;;;;;;;5052973;28;20033;-60
2024/03/17 12:36:56;;;;;;;0.93;0.43;;;;;;;;;;5053046;28;20036;-60
2024/03/17 12:39:24;;;;;;;0.28;0.28;;;;;;;;;;5070921;28;20058;-60
2024/03/17 12:42:08;;;;;;;0.43;0.40;;;;;;;;;;5070607;28;20490;-59
2024/03/17 12:44:39;;;;;;;0.35;0.30;;;;;;;;;;5070507;28;20044;-53
2024/03/17 12:47:05;;;;;;;0.65;0.40;;;;;;;;;;5070711;28;20032;-51
2024/03/17 12:49:34;;;;;;;0.65;0.35;;;;;;;;;;5071159;28;20048;-52
2024/03/17 12:52:00;;;;;;;0.47;0.32;;;;;;;;;;5070694;28;20044;-53
2024/03/17 12:54:26;;;;;;;0.57;0.30;;;;;;;;;;5070543;28;20028;-49
2024/03/17 13:02:23;;;;;;;0.98;0.50;;;;;;;;;;5070173;28;20036;-51
2024/03/17 13:05:10;;;;;;;0.75;0.40;;;;;;;;;;5070701;28;20056;-50
2024/03/17 13:07:36;;;;;;;1.40;0.55;;;;;;;;;;5061672;28;20040;-54
2024/03/17 13:10:02;;;;;;;1.40;0.57;;;;;;;;;;5070425;28;20042;-54
2024/03/17 13:12:27;;;;;;;1.75;0.60;;;;;;;;;;5070374;28;20031;-53
2024/03/17 13:14:54;;;;;;;0.85;0.50;;;;;;;;;;5052633;28;20091;-50
2024/03/17 13:17:19;;;;;;;1.05;0.52;;;;;;;;;;5070255;28;20036;-52
2024/03/17 13:19:48;;;;;;;0.93;0.40;;;;;;;;;;5070004;28;20109;-55
2024/03/17 13:22:13;;;;;;;0.95;0.52;;;;;;;;;;5070341;28;20035;-50
2024/03/17 13:24:39;;;;;;;1.00;0.50;;;;;;;;;;5069794;28;20048;-55
2024/03/17 13:27:06;;;;;;;1.88;0.60;;;;;;;;;;5070357;28;20036;-52
2024/03/17 13:29:36;;;;;;;0.50;0.40;;;;;;;;;;5070290;28;20116;-51
2024/03/17 13:32:02;;;;;;;1.38;0.40;;;;;;;;;;5069801;28;20444;-53
2024/03/17 13:34:28;;;;;;;2.17;0.80;;;;;;;;;;5070246;28;20063;-53
2024/03/17 13:36:54;;;;;;;0.70;0.43;;;;;;;;;;5070213;28;20075;-52
2024/03/17 13:39:20;;;;;;;1.52;0.70;;;;;;;;;;5070190;28;20032;-53
2024/03/17 13:41:46;;;;;;;2.28;0.73;;;;;;;;;;5067257;28;20125;-52
2024/03/17 13:44:12;;;;;;;1.08;0.60;;;;;;;;;;5070470;28;20044;-52
2024/03/17 13:46:37;;;;;;;0.73;0.40;;;;;;;;;;5074389;28;20530;-54
2024/03/17 13:49:09;;;;;;;1.20;0.52;;;;;;;;;;5074015;28;20446;-53
2024/03/17 13:51:35;;;;;;;1.48;0.50;;;;;;;;;;5072568;28;20115;-56
2024/03/17 13:54:00;;;;;;;1.75;0.52;;;;;;;;;;5074072;28;20123;-51
2024/03/17 13:56:26;;;;;;;1.10;0.45;;;;;;;;;;5073606;28;20028;-53
2024/03/17 13:58:52;;;;;;;0.73;0.40;;;;;;;;;;5074245;28;20048;-54
2024/03/17 14:01:17;;;;;;;0.70;0.40;;;;;;;;;;5073980;28;20040;-60
2024/03/17 14:03:43;;;;;;;0.45;0.40;;;;;;;;;;5073535;28;20040;-59
2024/03/17 14:06:09;;;;;;;0.93;0.50;;;;;;;;;;5073985;28;20089;-57
2024/03/17 14:08:35;;;;;;;1.15;0.55;;;;;;;;;;5073518;28;20075;-59
2024/03/17 14:11:01;;;;;;;1.55;0.60;;;;;;;;;;5073774;28;20044;-59
2024/03/17 14:13:26;;;;;;;1.05;0.50;;;;;;;;;;5071941;28;20037;-54
2024/03/17 14:15:55;;;;;;;1.85;0.50;;;;;;;;;;5073732;28;20051;-54
2024/03/17 14:18:21;;;;;;;0.73;0.40;;;;;;;;;;5055719;28;20079;-52
2024/03/17 14:20:46;;;;;;;0.95;0.52;;;;;;;;;;5073233;28;20526;-55
2024/03/17 14:23:12;;;;;;;0.90;0.50;;;;;;;;;;5073518;28;20043;-54
2024/03/17 14:25:37;;;;;;;0.65;0.40;;;;;;;;;;5073349;28;20029;-58
2024/03/17 14:28:03;;;;;;;1.02;0.60;;;;;;;;;;5073271;28;20111;-59
2024/03/17 14:30:29;;;;;;;0.77;0.47;;;;;;;;;;5072699;28;20116;-60
2024/03/17 14:32:55;;;;;;;1.05;0.50;;;;;;;;;;5070803;28;20578;-60
2024/03/17 14:35:23;;;;;;;1.45;0.80;;;;;;;;;;5073143;28;20028;-58
2024/03/17 14:37:48;;;;;;;1.95;0.50;;;;;;;;;;5073307;28;20044;-54
2024/03/17 14:40:23;;;;;;;0.50;0.50;;;;;;;;;;5073086;28;20033;-51
2024/03/17 14:42:51;;;;;;;1.77;0.55;;;;;;;;;;5072588;28;20557;-51
2024/03/17 14:45:18;;;;;;;0.85;0.50;;;;;;;;;;5072719;28;20048;-52
2024/03/17 14:47:44;;;;;;;1.23;0.52;;;;;;;;;;5073070;28;20047;-55
2024/03/17 14:50:11;;;;;;;1.35;0.60;;;;;;;;;;5072907;28;20054;-49